Time;durP1;ratioP1;P1;durP2;ratioP2;P2;SDS_P1;SDS_P2;PMS_P1;PMS_P2;Temp;Humidity;BMP_temperature;BMP_pressure;BME280_temperature;BME280_humidity;BME280_pressure;Samples;Min_cycle;Max_cycle;Signal;HPM_P1;HPM_P2
2022/02/14 00:00:27;;;;;;;12.65;8.30;;;4.80;89.20;;;;;;6157800;23;20012;-74
2022/02/14 00:02:53;;;;;;;12.77;9.38;;;4.80;89.20;;;;;;6158202;23;20009;-73
2022/02/14 00:05:18;;;;;;;10.27;8.63;;;4.80;89.20;;;;;;6184262;23;19997;-74
2022/02/14 00:07:44;;;;;;;12.40;8.77;;;4.80;89.30;;;;;;6184398;23;20047;-74
2022/02/14 00:10:10;;;;;;;12.05;9.07;;;4.80;89.50;;;;;;6184553;23;20005;-74
2022/02/14 00:12:41;;;;;;;10.85;8.98;;;4.80;89.70;;;;;;6157900;23;20012;-74
2022/02/14 00:15:11;;;;;;;12.80;8.80;;;4.80;89.70;;;;;;6184110;23;20009;-74
2022/02/14 00:17:37;;;;;;;11.82;9.10;;;4.90;89.90;;;;;;6157546;23;20019;-74
2022/02/14 00:20:04;;;;;;;11.77;8.25;;;4.90;89.80;;;;;;6184191;23;20005;-74
2022/02/14 00:22:30;;;;;;;12.50;9.18;;;4.90;89.80;;;;;;6184409;23;20001;-74
2022/02/14 00:24:57;;;;;;;9.07;7.50;;;4.90;89.90;;;;;;6184142;23;20124;-74
2022/02/14 00:27:23;;;;;;;9.68;8.15;;;4.90;89.90;;;;;;6157671;23;20393;-74
2022/02/14 00:29:49;;;;;;;11.48;8.48;;;4.90;89.80;;;;;;6184316;23;20001;-74
2022/02/14 00:32:15;;;;;;;13.68;8.15;;;5.00;89.80;;;;;;6184120;23;20004;-74
2022/02/14 00:34:41;;;;;;;11.50;8.05;;;5.00;89.70;;;;;;6183930;23;20445;-74
2022/02/14 00:37:07;;;;;;;11.63;8.75;;;5.00;89.50;;;;;;6183991;23;20036;-73
2022/02/14 00:39:33;;;;;;;14.82;9.57;;;5.00;89.80;;;;;;6157535;23;20373;-74
2022/02/14 00:41:59;;;;;;;13.75;8.27;;;5.10;90.00;;;;;;6184060;23;20005;-74
2022/02/14 00:44:25;;;;;;;13.18;9.30;;;5.10;90.10;;;;;;6183852;23;20048;-74
2022/02/14 00:46:50;;;;;;;13.93;9.25;;;5.10;90.20;;;;;;6157614;23;20452;-74
2022/02/14 00:49:16;;;;;;;12.90;8.57;;;5.10;90.10;;;;;;6183966;23;20011;-74
2022/02/14 00:51:42;;;;;;;16.50;9.18;;;5.10;90.10;;;;;;6184142;23;20001;-74
2022/02/14 00:54:08;;;;;;;13.73;9.10;;;5.10;90.00;;;;;;6183758;23;20027;-74
2022/02/14 00:56:34;;;;;;;12.43;8.68;;;5.20;90.00;;;;;;6183931;23;20001;-74
2022/02/14 00:59:00;;;;;;;13.80;8.88;;;5.10;89.80;;;;;;6183917;23;20000;-74
2022/02/14 01:01:28;;;;;;;16.52;9.65;;;5.10;90.20;;;;;;6157327;23;20080;-74
2022/02/14 01:03:54;;;;;;;12.02;9.18;;;5.10;89.90;;;;;;6183674;23;20001;-74
2022/02/14 01:06:20;;;;;;;15.10;10.23;;;5.00;90.40;;;;;;6157687;23;20013;-74
2022/02/14 01:08:45;;;;;;;16.15;9.85;;;4.90;90.70;;;;;;6183787;23;20097;-73
2022/02/14 01:11:11;;;;;;;17.27;11.00;;;4.90;90.80;;;;;;6183670;23;20445;-74
2022/02/14 01:13:37;;;;;;;15.43;10.65;;;4.80;90.90;;;;;;6183769;23;20008;-74
2022/02/14 01:16:03;;;;;;;15.93;11.32;;;4.70;90.80;;;;;;6183716;23;19997;-74
2022/02/14 01:18:29;;;;;;;17.92;12.23;;;4.60;90.90;;;;;;6183727;23;20012;-74
2022/02/14 01:20:55;;;;;;;18.27;12.13;;;4.50;91.10;;;;;;6183669;23;20005;-74
2022/02/14 01:23:20;;;;;;;19.15;12.70;;;4.40;91.50;;;;;;6183479;23;20441;-74
2022/02/14 01:25:46;;;;;;;18.50;12.45;;;4.20;92.10;;;;;;6183638;23;20039;-74
2022/02/14 01:28:12;;;;;;;20.65;13.10;;;4.10;92.30;;;;;;6157358;23;20036;-74
2022/02/14 01:30:38;;;;;;;16.67;12.20;;;4.00;92.60;;;;;;6183608;23;20012;-74
2022/02/14 01:33:04;;;;;;;15.90;12.43;;;3.90;93.40;;;;;;6183749;23;20001;-74
2022/02/14 01:35:31;;;;;;;18.00;12.27;;;3.80;93.70;;;;;;6183664;23;20039;-74
2022/02/14 01:37:56;;;;;;;17.08;12.32;;;3.70;93.10;;;;;;6183541;23;20000;-74
2022/02/14 01:40:22;;;;;;;20.55;12.23;;;3.70;94.10;;;;;;6183411;23;20011;-74
2022/02/14 01:42:48;;;;;;;20.98;13.45;;;3.80;94.20;;;;;;6183694;23;20001;-74
2022/02/14 01:45:14;;;;;;;17.35;12.20;;;3.90;94.40;;;;;;6183113;23;20044;-74
2022/02/14 01:47:41;;;;;;;16.80;10.18;;;3.90;94.60;;;;;;6157175;23;20460;-74
2022/02/14 01:50:08;;;;;;;15.80;9.98;;;4.00;94.60;;;;;;6183731;23;20119;-74
2022/02/14 01:52:35;;;;;;;13.95;9.55;;;4.00;94.20;;;;;;6183530;23;20001;-74
2022/02/14 01:55:05;;;;;;;12.87;9.70;;;3.90;94.10;;;;;;6183204;23;20122;-74
2022/02/14 01:57:32;;;;;;;11.75;8.88;;;3.90;94.10;;;;;;6183506;23;20005;-74
2022/02/14 01:59:58;;;;;;;12.50;9.95;;;3.90;94.10;;;;;;6183474;23;20059;-74
2022/02/14 02:02:24;;;;;;;15.20;9.70;;;3.90;94.20;;;;;;6183621;23;20001;-74
2022/02/14 02:04:50;;;;;;;13.07;9.93;;;3.70;94.50;;;;;;6183196;23;20346;-74
2022/02/14 02:07:16;;;;;;;14.10;10.52;;;3.70;94.60;;;;;;6183625;23;20012;-74
2022/02/14 02:09:43;;;;;;;14.63;10.38;;;3.60;94.80;;;;;;6183720;23;20001;-74
2022/02/14 02:12:22;;;;;;;13.70;10.63;;;3.60;94.80;;;;;;6185467;23;20100;-74
2022/02/14 02:14:49;;;;;;;13.90;10.00;;;3.60;94.90;;;;;;6185609;23;20001;-74
2022/02/14 02:17:15;;;;;;;13.50;9.67;;;3.60;94.80;;;;;;6185453;23;20456;-74
2022/02/14 02:19:40;;;;;;;11.63;9.27;;;3.60;94.70;;;;;;6158688;23;20045;-74
2022/02/14 02:22:06;;;;;;;11.17;9.13;;;3.60;94.70;;;;;;6185416;23;20080;-74
2022/02/14 02:24:51;;;;;;;16.60;10.10;;;3.60;94.60;;;;;;6185195;23;19997;-74
2022/02/14 02:27:21;;;;;;;12.67;9.93;;;3.60;94.30;;;;;;6185418;23;20307;-74
2022/02/14 02:29:47;;;;;;;12.40;8.50;;;3.60;94.30;;;;;;6185179;23;20081;-74
2022/02/14 02:32:13;;;;;;;12.53;9.43;;;3.60;94.20;;;;;;6185388;23;20005;-74
2022/02/14 02:34:42;;;;;;;13.93;9.70;;;3.60;94.10;;;;;;6185374;23;20011;-74
2022/02/14 02:37:11;;;;;;;12.67;8.97;;;3.60;94.10;;;;;;6158945;23;20005;-74
2022/02/14 02:39:37;;;;;;;13.00;9.40;;;3.60;94.00;;;;;;6185058;23;20009;-74
2022/02/14 02:42:05;;;;;;;15.57;9.23;;;3.60;93.90;;;;;;6185290;23;20051;-74
2022/02/14 02:44:32;;;;;;;12.93;9.10;;;3.60;93.80;;;;;;6184930;23;20009;-73
2022/02/14 02:47:03;;;;;;;11.13;8.83;;;3.60;93.70;;;;;;6185401;23;20054;-73
2022/02/14 02:49:28;;;;;;;11.43;8.90;;;3.50;93.60;;;;;;6158753;23;20012;-74
2022/02/14 02:51:55;;;;;;;13.40;8.73;;;3.50;93.50;;;;;;6158719;23;20009;-74
2022/02/14 02:54:22;;;;;;;13.30;9.80;;;3.60;93.40;;;;;;6185235;23;20080;-74
2022/02/14 02:56:50;;;;;;;12.33;9.07;;;3.60;93.40;;;;;;6158886;23;20059;-74
2022/02/14 02:59:16;;;;;;;13.43;9.30;;;3.60;93.40;;;;;;6184984;23;20028;-74
2022/02/14 03:01:43;;;;;;;11.93;9.67;;;3.60;93.40;;;;;;6185103;23;20369;-74
2022/02/14 03:04:11;;;;;;;13.33;10.17;;;3.60;93.40;;;;;;6185284;23;20430;-74
2022/02/14 03:06:38;;;;;;;11.77;9.20;;;3.60;93.30;;;;;;6185150;23;20525;-73
2022/02/14 03:09:05;;;;;;;12.20;9.63;;;3.50;93.30;;;;;;6184817;23;20005;-74
2022/02/14 03:11:31;;;;;;;11.17;8.70;;;3.50;93.50;;;;;;6184996;23;20007;-74
2022/02/14 03:13:57;;;;;;;11.27;9.30;;;3.40;93.50;;;;;;6185084;23;20005;-74
2022/02/14 03:16:23;;;;;;;13.33;9.47;;;3.40;93.60;;;;;;6184771;23;20503;-74
2022/02/14 03:18:50;;;;;;;11.83;9.27;;;3.40;93.60;;;;;;6184793;23;20001;-74
2022/02/14 03:21:19;;;;;;;11.63;9.67;;;3.40;93.60;;;;;;6157895;23;20008;-74
2022/02/14 03:23:47;;;;;;;13.03;9.60;;;3.40;93.60;;;;;;6184994;23;19993;-74
2022/02/14 03:26:14;;;;;;;12.93;8.80;;;3.30;93.70;;;;;;6184781;23;20000;-74
2022/02/14 03:28:39;;;;;;;17.23;8.90;;;3.40;93.70;;;;;;6184814;23;20017;-74
2022/02/14 03:31:05;;;;;;;15.40;9.37;;;3.30;93.70;;;;;;6184937;23;20004;-73
2022/02/14 03:33:31;;;;;;;12.77;9.30;;;3.40;93.70;;;;;;6184669;23;19993;-74
2022/02/14 03:35:57;;;;;;;14.20;9.77;;;3.30;93.50;;;;;;6184817;23;20001;-74
2022/02/14 03:38:22;;;;;;;14.63;9.87;;;3.40;93.50;;;;;;6184862;23;20007;-74
2022/02/14 03:40:48;;;;;;;11.33;8.87;;;3.40;93.40;;;;;;6158114;23;20013;-74
2022/02/14 03:43:14;;;;;;;12.83;9.03;;;3.40;93.30;;;;;;6184386;23;20108;-74
2022/02/14 03:45:41;;;;;;;16.47;10.23;;;3.40;93.30;;;;;;6158401;23;20027;-74
2022/02/14 03:48:08;;;;;;;12.30;8.57;;;3.50;93.30;;;;;;6158390;23;20001;-74
2022/02/14 03:50:34;;;;;;;13.13;9.13;;;3.50;93.20;;;;;;6158121;23;20001;-74
2022/02/14 03:53:01;;;;;;;10.83;8.50;;;3.50;93.30;;;;;;6184706;23;20005;-74
2022/02/14 03:55:27;;;;;;;11.73;9.30;;;3.60;93.10;;;;;;6184581;23;20399;-74
2022/02/14 03:57:53;;;;;;;11.03;9.30;;;3.70;93.00;;;;;;6184541;23;20005;-74
2022/02/14 04:00:21;;;;;;;13.83;9.23;;;3.80;93.00;;;;;;6184641;23;20005;-74
2022/02/14 04:02:48;;;;;;;12.23;9.33;;;3.70;92.80;;;;;;6184635;23;20001;-74
2022/02/14 04:05:15;;;;;;;11.50;9.27;;;3.70;92.80;;;;;;6157989;23;20012;-74
2022/02/14 04:07:41;;;;;;;12.23;9.43;;;3.80;92.70;;;;;;6184493;23;20080;-74
2022/02/14 04:10:09;;;;;;;13.33;9.50;;;3.80;92.40;;;;;;6158112;23;20457;-75
2022/02/14 04:12:35;;;;;;;14.80;10.13;;;3.90;92.30;;;;;;6157920;23;20005;-74
2022/02/14 04:15:01;;;;;;;11.83;9.27;;;3.90;92.20;;;;;;6157771;23;20037;-74
2022/02/14 04:17:27;;;;;;;16.47;9.93;;;4.00;92.10;;;;;;6184346;23;20001;-74
2022/02/14 04:19:53;;;;;;;14.47;8.93;;;4.00;92.00;;;;;;6184419;23;20000;-74
2022/02/14 04:22:20;;;;;;;10.37;8.57;;;4.00;92.00;;;;;;6184175;23;19997;-74
2022/02/14 04:24:46;;;;;;;12.98;9.55;;;4.00;92.10;;;;;;6158074;23;20008;-74
2022/02/14 04:27:12;;;;;;;12.07;9.03;;;4.10;92.00;;;;;;6184523;23;20001;-74
2022/02/14 04:29:38;;;;;;;13.60;8.98;;;4.10;92.00;;;;;;6157839;23;20009;-74
2022/02/14 04:32:04;;;;;;;14.10;9.50;;;4.10;92.10;;;;;;6157896;23;20540;-74
2022/02/14 04:34:30;;;;;;;14.30;9.50;;;4.10;92.10;;;;;;6184327;23;20033;-74
2022/02/14 04:36:55;;;;;;;13.00;9.50;;;4.20;92.10;;;;;;6185237;23;20009;-74
2022/02/14 04:39:21;;;;;;;15.68;10.05;;;4.20;92.10;;;;;;6184944;23;20005;-74
2022/02/14 04:41:47;;;;;;;11.80;8.90;;;4.20;92.00;;;;;;6184895;23;20076;-74
2022/02/14 04:44:13;;;;;;;15.90;9.48;;;4.20;92.00;;;;;;6184920;23;20043;-74
2022/02/14 04:46:39;;;;;;;11.70;8.90;;;4.20;92.00;;;;;;6185703;23;20012;-74
2022/02/14 04:49:06;;;;;;;14.35;9.93;;;4.20;92.10;;;;;;6184797;23;20037;-74
2022/02/14 04:51:33;;;;;;;11.15;9.07;;;4.20;92.60;;;;;;6158040;23;20015;-74
2022/02/14 04:54:01;;;;;;;15.55;9.13;;;4.20;92.40;;;;;;6184608;23;20330;-74
2022/02/14 04:56:27;;;;;;;16.90;8.52;;;4.20;92.40;;;;;;6158166;23;20009;-74
2022/02/14 04:58:53;;;;;;;20.07;9.33;;;4.20;92.50;;;;;;6184276;23;20430;-74
2022/02/14 05:01:18;;;;;;;11.57;8.73;;;4.20;92.50;;;;;;6184319;23;20500;-74
2022/02/14 05:03:44;;;;;;;11.85;9.15;;;4.20;92.50;;;;;;6184099;23;20047;-74
2022/02/14 05:06:10;;;;;;;12.23;9.73;;;4.20;92.60;;;;;;6184130;23;20326;-74
2022/02/14 05:08:35;;;;;;;14.30;10.38;;;4.30;92.60;;;;;;6184158;23;20001;-74
2022/02/14 05:11:02;;;;;;;14.35;9.88;;;4.20;92.60;;;;;;6158105;23;20333;-74
2022/02/14 05:13:28;;;;;;;14.02;9.18;;;4.30;92.70;;;;;;6157703;23;20159;-74
2022/02/14 05:15:54;;;;;;;12.52;8.75;;;4.30;92.70;;;;;;6184071;23;20591;-74
2022/02/14 05:18:19;;;;;;;11.02;9.10;;;4.30;92.60;;;;;;6184071;23;20005;-74
2022/02/14 05:20:45;;;;;;;18.80;10.17;;;4.30;92.80;;;;;;6157433;23;20527;-74
2022/02/14 05:23:11;;;;;;;14.45;9.55;;;4.30;92.70;;;;;;6183850;23;20338;-74
2022/02/14 05:25:36;;;;;;;15.93;8.98;;;4.40;92.70;;;;;;6157615;23;20013;-74
2022/02/14 05:28:07;;;;;;;15.18;9.98;;;4.40;92.70;;;;;;6157575;23;20008;-74
2022/02/14 05:30:33;;;;;;;12.80;9.90;;;4.40;92.80;;;;;;6157523;23;20012;-74
2022/02/14 05:32:59;;;;;;;14.98;10.43;;;4.40;93.00;;;;;;6183213;23;20005;-74
2022/02/14 05:35:25;;;;;;;14.48;9.23;;;4.40;93.00;;;;;;6159036;23;20624;-74
2022/02/14 05:37:52;;;;;;;17.77;10.43;;;4.40;93.00;;;;;;6185114;23;20015;-74
2022/02/14 05:40:18;;;;;;;12.57;9.50;;;4.40;93.20;;;;;;6156351;23;20096;-74
2022/02/14 05:42:44;;;;;;;13.93;9.18;;;4.40;93.20;;;;;;6156658;23;20012;-74
2022/02/14 05:45:10;;;;;;;13.00;9.25;;;4.40;93.10;;;;;;6182705;23;20005;-74
2022/02/14 05:47:39;;;;;;;13.25;9.30;;;4.50;93.10;;;;;;6183274;23;19998;-74
2022/02/14 05:50:07;;;;;;;12.30;9.32;;;4.50;93.10;;;;;;6182698;23;20001;-75
2022/02/14 05:52:33;;;;;;;11.32;9.20;;;4.50;93.10;;;;;;6156298;23;20092;-74
2022/02/14 05:55:00;;;;;;;12.73;9.02;;;4.50;93.10;;;;;;6156941;23;20013;-74
2022/02/14 05:57:25;;;;;;;12.95;9.90;;;4.50;93.20;;;;;;6184818;23;20012;-74
2022/02/14 05:59:51;;;;;;;12.13;9.10;;;4.60;93.20;;;;;;6185039;23;20028;-74
2022/02/14 06:02:17;;;;;;;14.40;9.65;;;4.60;93.20;;;;;;6185035;23;20306;-74
2022/02/14 06:04:43;;;;;;;13.50;9.93;;;4.60;93.30;;;;;;6184777;23;20425;-74
2022/02/14 06:07:09;;;;;;;12.57;9.82;;;4.60;93.30;;;;;;6158375;23;20435;-78
2022/02/14 06:09:35;;;;;;;15.52;9.82;;;4.60;93.30;;;;;;6158664;23;20035;-79
2022/02/14 06:12:00;;;;;;;14.05;9.18;;;4.60;93.20;;;;;;6184903;23;20015;-79
2022/02/14 06:14:27;;;;;;;16.20;10.18;;;4.60;93.30;;;;;;6158589;23;20464;-78
2022/02/14 06:16:53;;;;;;;16.75;10.02;;;4.70;93.30;;;;;;6158603;23;20001;-77
2022/02/14 06:19:21;;;;;;;14.00;9.25;;;4.70;93.40;;;;;;6184974;23;20008;-79
2022/02/14 06:21:49;;;;;;;17.75;9.68;;;4.60;93.50;;;;;;6158520;23;20441;-79
2022/02/14 06:24:18;;;;;;;16.02;10.13;;;4.60;93.50;;;;;;6156783;23;20028;-79
2022/02/14 06:26:44;;;;;;;17.27;9.90;;;4.70;93.50;;;;;;6157139;23;20005;-79
2022/02/14 06:29:10;;;;;;;16.67;10.30;;;4.70;93.40;;;;;;6183458;23;20059;-79
2022/02/14 06:31:37;;;;;;;17.42;9.88;;;4.70;93.40;;;;;;6183286;23;20006;-79
2022/02/14 06:34:03;;;;;;;15.20;10.02;;;4.70;93.40;;;;;;6183391;23;20009;-79
2022/02/14 06:36:30;;;;;;;14.93;9.20;;;4.70;93.10;;;;;;6182926;23;20001;-79
2022/02/14 06:38:58;;;;;;;14.10;10.00;;;4.80;92.90;;;;;;6182519;23;20001;-79
2022/02/14 06:41:25;;;;;;;14.05;9.52;;;4.80;93.00;;;;;;6180920;23;20081;-78
2022/02/14 06:43:52;;;;;;;14.25;10.45;;;4.90;93.10;;;;;;6154460;23;20047;-79
2022/02/14 06:46:18;;;;;;;13.25;9.15;;;4.80;93.20;;;;;;6154553;23;20005;-79
2022/02/14 06:48:44;;;;;;;20.00;10.43;;;4.80;93.40;;;;;;6180980;23;20269;-79
2022/02/14 06:51:11;;;;;;;12.23;9.90;;;4.90;93.30;;;;;;6181185;23;20083;-79
2022/02/14 06:53:37;;;;;;;15.15;9.63;;;4.90;93.20;;;;;;6154519;23;20330;-79
2022/02/14 06:56:05;;;;;;;14.77;10.07;;;4.90;93.20;;;;;;6183521;23;20393;-79
2022/02/14 06:58:38;;;;;;;11.80;9.13;;;4.90;93.20;;;;;;6185041;23;20063;-78
2022/02/14 07:01:07;;;;;;;16.02;9.10;;;5.00;93.30;;;;;;6184963;23;20001;-79
2022/02/14 07:03:37;;;;;;;13.38;9.60;;;5.00;93.10;;;;;;6184934;23;20005;-79
2022/02/14 07:06:04;;;;;;;19.55;10.75;;;5.00;93.20;;;;;;6185193;23;20008;-79
2022/02/14 07:08:31;;;;;;;16.98;9.70;;;5.00;93.20;;;;;;6185224;23;20024;-79
2022/02/14 07:10:56;;;;;;;16.58;9.52;;;5.00;93.40;;;;;;6184829;23;20059;-79
2022/02/14 07:13:22;;;;;;;15.23;9.30;;;5.00;93.40;;;;;;6184990;23;20441;-79
2022/02/14 07:15:48;;;;;;;13.90;9.70;;;5.10;93.50;;;;;;6185117;23;20008;-79
2022/02/14 07:18:14;;;;;;;13.75;9.38;;;5.10;93.50;;;;;;6158544;23;20013;-79
2022/02/14 07:20:40;;;;;;;13.88;9.25;;;5.10;93.60;;;;;;6184904;23;20036;-79
2022/02/14 07:23:07;;;;;;;15.93;10.13;;;5.10;93.80;;;;;;6184243;23;20001;-79
2022/02/14 07:25:33;;;;;;;18.67;10.18;;;5.10;94.10;;;;;;6184910;23;20445;-79
2022/02/14 07:27:59;;;;;;;23.33;10.75;;;5.10;94.50;;;;;;6158544;23;20001;-79
2022/02/14 07:30:39;;;;;;;15.70;10.10;;;5.10;94.60;;;;;;6184346;23;20338;-78
2022/02/14 07:33:05;;;;;;;17.05;10.32;;;5.10;94.70;;;;;;6184733;23;20151;-79
2022/02/14 07:35:31;;;;;;;17.05;9.73;;;5.10;94.60;;;;;;6184279;23;20438;-80
2022/02/14 07:37:57;;;;;;;14.38;9.40;;;5.10;94.60;;;;;;6184905;23;20084;-79
2022/02/14 07:40:25;;;;;;;17.17;10.95;;;5.20;94.50;;;;;;6184777;23;20027;-79
2022/02/14 07:42:51;;;;;;;17.73;11.48;;;5.20;94.60;;;;;;6158219;23;20503;-79
2022/02/14 07:45:46;;;;;;;14.65;10.43;;;5.20;94.40;;;;;;6184392;23;20009;-79
2022/02/14 07:48:12;;;;;;;16.92;10.90;;;5.20;94.60;;;;;;6155737;23;20029;-79
2022/02/14 07:50:38;;;;;;;14.15;9.70;;;5.20;94.40;;;;;;6184715;23;20011;-79
2022/02/14 07:53:04;;;;;;;15.13;10.02;;;5.20;94.30;;;;;;6184692;23;20079;-79
2022/02/14 07:55:30;;;;;;;13.98;9.88;;;5.30;94.30;;;;;;6158236;23;20049;-79
2022/02/14 07:57:55;;;;;;;14.63;9.90;;;5.30;94.40;;;;;;6158031;23;20016;-79
2022/02/14 08:00:22;;;;;;;17.48;10.80;;;5.30;94.30;;;;;;6184766;23;20050;-79
2022/02/14 08:02:48;;;;;;;17.75;10.32;;;5.40;94.20;;;;;;6184943;23;19998;-79
2022/02/14 08:05:14;;;;;;;15.38;9.73;;;5.40;93.90;;;;;;6184868;23;20007;-79
2022/02/14 08:07:40;;;;;;;15.48;9.98;;;5.40;93.90;;;;;;6184117;23;20029;-79
2022/02/14 08:10:06;;;;;;;13.32;9.55;;;5.50;94.00;;;;;;6184684;23;20004;-79
2022/02/14 08:12:34;;;;;;;14.13;9.30;;;5.50;94.00;;;;;;6158934;23;20319;-79
2022/02/14 08:15:00;;;;;;;13.82;8.95;;;5.50;94.00;;;;;;6158664;23;20016;-79
2022/02/14 08:17:25;;;;;;;14.98;10.13;;;5.50;93.90;;;;;;6159026;23;20330;-79
2022/02/14 08:19:51;;;;;;;17.17;10.77;;;5.50;93.70;;;;;;6184443;23;20001;-79
2022/02/14 08:22:17;;;;;;;17.48;9.80;;;5.60;93.80;;;;;;6158090;23;20012;-80
2022/02/14 08:24:43;;;;;;;17.50;9.27;;;5.60;93.60;;;;;;6184229;23;20002;-79
2022/02/14 08:27:08;;;;;;;13.68;9.27;;;5.60;93.30;;;;;;6157958;23;20007;-79
2022/02/14 08:29:35;;;;;;;15.98;9.73;;;5.60;93.20;;;;;;6184283;23;20005;-79
2022/02/14 08:32:00;;;;;;;16.67;9.45;;;5.70;93.20;;;;;;6184329;23;20001;-79
2022/02/14 08:34:28;;;;;;;14.38;9.23;;;5.70;93.20;;;;;;6184162;23;20004;-79
2022/02/14 08:36:55;;;;;;;15.38;9.88;;;5.70;93.00;;;;;;6184181;23;20008;-79
2022/02/14 08:39:20;;;;;;;18.27;9.82;;;5.80;92.90;;;;;;6183956;23;20008;-79
2022/02/14 08:41:46;;;;;;;18.65;9.98;;;5.80;92.80;;;;;;6184197;23;20000;-79
2022/02/14 08:44:12;;;;;;;15.32;9.73;;;5.80;92.70;;;;;;6155497;23;20017;-79
2022/02/14 08:46:39;;;;;;;14.82;9.27;;;5.90;92.80;;;;;;6183916;23;19997;-78
2022/02/14 08:49:05;;;;;;;16.58;10.02;;;5.90;92.60;;;;;;6157689;23;20085;-79
2022/02/14 08:51:31;;;;;;;15.75;10.40;;;5.90;92.40;;;;;;6182825;23;20001;-79
2022/02/14 08:53:58;;;;;;;18.50;10.27;;;6.00;92.30;;;;;;6182555;23;20001;-79
2022/02/14 08:56:24;;;;;;;19.25;9.90;;;6.00;92.40;;;;;;6182596;23;20268;-79
2022/02/14 08:58:50;;;;;;;16.85;10.90;;;6.00;92.40;;;;;;6182605;23;20001;-79
2022/02/14 09:01:17;;;;;;;17.58;10.40;;;6.00;92.30;;;;;;6182166;23;20020;-79
2022/02/14 09:03:43;;;;;;;13.52;9.73;;;6.10;92.50;;;;;;6182599;23;20008;-79
2022/02/14 09:06:09;;;;;;;17.35;9.80;;;6.10;92.60;;;;;;6156073;23;20342;-78
2022/02/14 09:08:36;;;;;;;21.40;10.73;;;6.10;92.60;;;;;;6157579;23;20002;-78
2022/02/14 09:11:03;;;;;;;18.33;11.48;;;6.20;92.70;;;;;;6183936;23;20005;-79
2022/02/14 09:13:32;;;;;;;18.42;11.35;;;6.20;92.60;;;;;;6183903;23;20001;-79
2022/02/14 09:16:04;;;;;;;19.33;11.20;;;6.20;93.20;;;;;;6157354;23;20138;-77
2022/02/14 09:18:31;;;;;;;21.48;11.18;;;6.30;93.40;;;;;;6157631;23;20005;-78
2022/02/14 09:20:57;;;;;;;36.00;18.77;;;6.30;93.60;;;;;;6183794;23;20001;-78
2022/02/14 09:23:24;;;;;;;37.97;20.30;;;6.30;93.80;;;;;;6183275;23;20051;-78
2022/02/14 09:25:50;;;;;;;34.85;17.67;;;6.40;93.90;;;;;;6183426;23;20005;-77
2022/02/14 09:28:18;;;;;;;32.67;17.48;;;6.30;94.60;;;;;;6183372;23;20198;-77
2022/02/14 09:30:44;;;;;;;31.33;15.68;;;6.30;94.60;;;;;;6183657;23;20009;-77
2022/02/14 09:33:10;;;;;;;32.50;15.40;;;6.30;94.40;;;;;;6183581;23;20076;-77
2022/02/14 09:35:36;;;;;;;27.52;13.35;;;6.30;94.00;;;;;;6183488;23;20341;-77
2022/02/14 09:38:04;;;;;;;23.90;14.20;;;6.30;94.10;;;;;;6183427;23;20008;-77
2022/02/14 09:40:32;;;;;;;23.30;12.43;;;6.30;93.80;;;;;;6183368;23;20001;-77
2022/02/14 09:42:59;;;;;;;22.13;12.82;;;6.40;93.60;;;;;;6156529;23;20080;-77
2022/02/14 09:45:27;;;;;;;20.55;12.95;;;6.40;93.10;;;;;;6183680;23;20035;-77
2022/02/14 09:47:56;;;;;;;23.35;12.63;;;6.40;93.20;;;;;;6183261;23;20009;-77
2022/02/14 09:50:22;;;;;;;21.73;12.18;;;6.40;93.00;;;;;;6183274;23;20001;-79
2022/02/14 09:52:51;;;;;;;18.60;11.57;;;6.40;92.60;;;;;;6182938;23;20081;-77
2022/02/14 09:55:17;;;;;;;23.50;12.23;;;6.40;92.50;;;;;;6183172;23;20501;-79
2022/02/14 09:57:43;;;;;;;19.23;11.30;;;6.40;92.50;;;;;;6183319;23;20338;-79
2022/02/14 10:00:09;;;;;;;25.08;12.32;;;6.40;92.50;;;;;;6182674;23;20005;-79
2022/02/14 10:02:36;;;;;;;25.10;11.60;;;6.40;92.50;;;;;;6182295;23;20000;-79
2022/02/14 10:05:15;;;;;;;20.02;12.27;;;6.50;92.60;;;;;;6156600;23;20008;-79
2022/02/14 10:07:52;;;;;;;21.85;12.88;;;6.50;92.40;;;;;;6183017;23;20005;-80
2022/02/14 10:10:25;;;;;;;21.77;12.40;;;6.50;92.40;;;;;;6183421;23;19993;-79
2022/02/14 10:12:55;;;;;;;22.98;12.05;;;6.60;92.20;;;;;;6183178;23;20481;-77
2022/02/14 10:15:23;;;;;;;29.52;13.35;;;6.50;92.30;;;;;;6152613;23;20215;-78
2022/02/14 10:17:51;;;;;;;22.17;12.40;;;6.50;92.30;;;;;;6177621;23;20013;-80
2022/02/14 10:20:22;;;;;;;29.15;12.82;;;6.60;92.40;;;;;;6176198;23;20001;-79
2022/02/14 10:22:59;;;;;;;30.65;12.10;;;6.60;92.20;;;;;;6178054;23;20407;-78
2022/02/14 10:25:39;;;;;;;22.80;12.40;;;6.60;91.90;;;;;;6151802;23;20052;-78
2022/02/14 10:28:18;;;;;;;27.98;13.50;;;6.60;91.60;;;;;;6178378;23;20028;-78
2022/02/14 10:31:18;;;;;;;32.25;12.70;;;6.70;91.90;;;;;;6179212;23;20008;-80
2022/02/14 10:33:56;;;;;;;21.50;12.60;;;6.70;92.00;;;;;;6076514;23;20342;-80
2022/02/14 10:36:36;;;;;;;23.58;12.80;;;6.70;91.50;;;;;;6180173;23;20012;-80
2022/02/14 10:39:22;;;;;;;19.63;11.40;;;6.70;91.30;;;;;;6179698;23;20008;-80
2022/02/14 10:41:55;;;;;;;24.23;11.27;;;6.80;91.30;;;;;;6180638;23;20040;-80
2022/02/14 10:47:15;;;;;;;16.98;10.68;;;6.80;91.60;;;;;;6180252;23;20549;-80
2022/02/14 10:49:42;;;;;;;17.73;12.07;;;6.80;91.50;;;;;;6153809;23;20009;-80
2022/02/14 10:52:11;;;;;;;21.50;11.57;;;6.90;91.70;;;;;;6153246;23;20009;-77
2022/02/14 10:54:44;;;;;;;18.58;11.82;;;6.90;91.30;;;;;;6179376;23;20008;-78
2022/02/14 10:57:28;;;;;;;18.73;11.68;;;6.90;91.00;;;;;;6180016;23;20001;-79
2022/02/14 11:00:14;;;;;;;17.02;10.90;;;6.80;91.10;;;;;;6152627;23;20013;-78
2022/02/14 11:02:45;;;;;;;15.63;10.80;;;6.90;91.20;;;;;;6178954;23;20485;-77
2022/02/14 11:05:13;;;;;;;18.75;10.43;;;6.80;90.50;;;;;;6179356;23;20000;-78
2022/02/14 11:07:40;;;;;;;16.80;10.25;;;6.90;89.90;;;;;;6153913;23;20004;-77
2022/02/14 11:10:12;;;;;;;19.67;12.25;;;6.90;90.10;;;;;;6178876;23;20076;-78
2022/02/14 11:12:57;;;;;;;17.05;11.13;;;6.90;90.00;;;;;;6177817;23;20005;-78
2022/02/14 11:15:28;;;;;;;19.92;11.00;;;6.90;88.60;;;;;;6153299;23;20060;-78
2022/02/14 11:18:08;;;;;;;14.93;10.50;;;6.90;88.70;;;;;;6179077;23;20036;-78
2022/02/14 11:20:34;;;;;;;17.17;10.45;;;6.90;88.60;;;;;;6179298;23;20464;-77
2022/02/14 11:23:00;;;;;;;21.45;11.15;;;6.90;88.80;;;;;;6179888;23;20008;-78
2022/02/14 11:25:52;;;;;;;14.63;10.60;;;6.90;88.80;;;;;;6179987;23;20005;-79
2022/02/14 11:28:29;;;;;;;21.08;10.60;;;7.00;88.40;;;;;;6154258;23;20079;-80
2022/02/14 11:31:07;;;;;;;18.33;10.57;;;7.00;87.70;;;;;;6180747;23;20005;-78
2022/02/14 11:33:34;;;;;;;18.77;10.82;;;7.00;86.00;;;;;;6180077;23;20008;-79
2022/02/14 11:36:05;;;;;;;21.08;12.48;;;7.00;86.40;;;;;;6153235;23;20005;-79
2022/02/14 11:38:47;;;;;;;18.77;10.80;;;7.00;85.40;;;;;;6178615;23;20009;-80
2022/02/14 11:41:24;;;;;;;23.35;14.05;;;7.00;85.40;;;;;;6152739;23;20019;-80
2022/02/14 11:43:50;;;;;;;20.45;10.93;;;7.00;85.20;;;;;;6151703;23;20017;-80
2022/02/14 11:46:19;;;;;;;17.95;10.63;;;7.00;84.10;;;;;;6179414;23;19997;-79
2022/02/14 11:48:52;;;;;;;17.20;10.10;;;7.00;84.60;;;;;;6179468;23;20004;-79
2022/02/14 11:51:23;;;;;;;14.80;9.70;;;7.00;83.80;;;;;;6152863;23;20012;-79
2022/02/14 11:53:50;;;;;;;12.93;9.10;;;7.00;83.50;;;;;;6178836;23;20005;-78
2022/02/14 11:56:21;;;;;;;19.17;9.88;;;7.00;83.30;;;;;;6179405;23;20005;-78
2022/02/14 11:59:26;;;;;;;16.23;9.83;;;7.00;82.40;;;;;;6179728;23;20009;-78
2022/02/14 12:01:51;;;;;;;14.80;9.25;;;7.00;82.50;;;;;;6179955;23;20288;-78
2022/02/14 12:04:39;;;;;;;14.45;9.52;;;7.00;82.20;;;;;;6178751;23;20084;-78
2022/02/14 12:07:20;;;;;;;16.00;9.50;;;7.00;82.90;;;;;;6152803;23;20218;-78
2022/02/14 12:10:35;;;;;;;14.43;9.70;;;7.00;82.70;;;;;;6153059;23;20009;-78
2022/02/14 12:13:04;;;;;;;16.38;8.98;;;7.00;81.70;;;;;;6122603;23;20012;-78
2022/02/14 12:21:06;;;;;;;15.48;9.40;;;7.20;82.10;;;;;;6179430;23;20104;-78
2022/02/14 12:23:44;;;;;;;16.52;9.40;;;7.20;81.60;;;;;;6153288;23;20012;-78
2022/02/14 12:26:15;;;;;;;15.85;9.15;;;7.30;81.60;;;;;;6179865;23;20040;-78
2022/02/14 12:28:43;;;;;;;13.55;9.70;;;7.30;81.10;;;;;;6178896;23;20401;-78
2022/02/14 12:31:10;;;;;;;18.50;11.68;;;7.40;80.30;;;;;;6179783;23;20021;-78
2022/02/14 12:33:36;;;;;;;17.23;10.27;;;7.40;80.30;;;;;;6151284;23;20005;-78
2022/02/14 12:36:10;;;;;;;17.05;10.20;;;7.50;81.30;;;;;;6150912;23;20015;-78
2022/02/14 12:38:38;;;;;;;18.75;10.13;;;7.50;80.10;;;;;;6177408;23;20028;-78
2022/02/14 12:41:06;;;;;;;19.77;10.38;;;7.50;81.70;;;;;;6178054;23;20020;-78
2022/02/14 12:43:42;;;;;;;17.80;10.88;;;7.60;83.00;;;;;;6150780;23;20040;-78
2022/02/14 12:46:30;;;;;;;17.00;10.40;;;7.60;82.80;;;;;;6177476;23;20032;-78
2022/02/14 12:48:58;;;;;;;17.63;11.32;;;7.70;83.80;;;;;;6151119;23;20005;-78
2022/02/14 12:51:28;;;;;;;16.77;10.70;;;7.80;83.80;;;;;;6177044;23;20445;-78
2022/02/14 12:53:56;;;;;;;18.48;11.40;;;8.00;84.40;;;;;;6150209;23;20001;-78
2022/02/14 12:56:25;;;;;;;15.30;9.98;;;8.00;81.80;;;;;;6178134;23;20005;-78